createdAt,value
2022-11-02T00:00:48.067Z,98911.16
2022-11-02T00:03:14.700Z,98905.97
2022-11-02T00:05:41.558Z,98918.28
2022-11-02T00:08:08.142Z,98912.13
2022-11-02T00:10:34.962Z,98912.25
2022-11-02T00:13:01.814Z,98911.28
2022-11-02T00:15:31.251Z,98912.25
2022-11-02T00:20:41.623Z,98914.03
2022-11-02T00:23:10.826Z,98906.56
2022-11-02T00:25:44.075Z,98912.47
2022-11-02T00:28:11.071Z,98916.81
2022-11-02T00:30:38.060Z,98911.63
2022-11-02T00:35:31.461Z,98914.28
2022-11-02T00:37:58.547Z,98918.66
2022-11-02T00:40:25.062Z,98902.59
2022-11-02T00:42:51.689Z,98918.75
2022-11-02T00:45:18.476Z,98921.53
2022-11-02T00:47:46.291Z,98925.03
2022-11-02T00:50:13.235Z,98923.22
2022-11-02T00:52:40.942Z,98922.38
2022-11-02T00:55:09.112Z,98920.69
2022-11-02T00:57:38.612Z,98919.81
2022-11-02T01:00:09.930Z,98913.56
2022-11-02T01:02:37.591Z,98900.28
2022-11-02T01:07:17.035Z,98925.25
2022-11-02T01:09:43.645Z,98914.63
2022-11-02T01:12:11.070Z,98931.53
2022-11-02T01:14:37.774Z,98919.13
2022-11-02T01:17:04.777Z,98918.25
2022-11-02T01:21:55.603Z,98919.22
2022-11-02T01:24:22.891Z,98917.53
2022-11-02T01:26:52.975Z,98911.25
2022-11-02T01:29:19.727Z,98913.91
2022-11-02T01:31:46.510Z,98913.91
2022-11-02T01:34:13.021Z,98910.41
2022-11-02T01:36:39.666Z,98912.13
2022-11-02T01:39:07.075Z,98922.00
2022-11-02T01:41:33.657Z,98913.06
2022-11-02T01:44:02.951Z,98921.03
2022-11-02T01:46:38.659Z,98921.88
2022-11-02T01:49:10.118Z,98916.56
2022-11-02T01:51:42.159Z,98914.91
2022-11-02T01:54:16.950Z,98911.25
2022-11-02T01:56:48.732Z,98911.25
2022-11-02T01:59:21.089Z,98917.53
2022-11-02T02:01:48.912Z,98908.72
2022-11-02T02:04:15.944Z,98902.59
2022-11-02T02:06:44.016Z,98911.38
2022-11-02T02:09:10.890Z,98901.56
2022-11-02T02:11:39.671Z,98913.19
2022-11-02T02:14:11.932Z,98924.66
2022-11-02T02:17:26.594Z,98912.34
2022-11-02T02:20:07.762Z,98917.78
2022-11-02T02:22:43.676Z,98918.63
2022-11-02T02:25:29.219Z,98916.06
2022-11-02T02:28:15.731Z,98916.06
2022-11-02T02:31:00.441Z,98915.25
2022-11-02T02:33:29.862Z,98919.59
2022-11-02T02:36:01.225Z,98916.06
2022-11-02T02:38:34.545Z,98919.59
2022-11-02T02:41:07.420Z,98923.94
2022-11-02T02:43:42.657Z,98925.72
2022-11-02T02:46:34.609Z,98923.41
2022-11-02T02:49:01.754Z,98914.13
2022-11-02T02:51:32.384Z,98930.31
2022-11-02T02:54:22.654Z,98935.59
2022-11-02T02:56:55.949Z,98935.59
2022-11-02T02:59:27.999Z,98924.75
2022-11-02T03:01:57.152Z,98941.91
2022-11-02T03:04:25.031Z,98936.69
2022-11-02T03:06:58.439Z,98931.16
2022-11-02T03:09:32.139Z,98944.66
2022-11-02T03:12:22.929Z,98939.34
2022-11-02T03:14:55.531Z,98939.34
2022-11-02T03:17:32.864Z,98942.88
2022-11-02T03:20:25.674Z,98941.16
2022-11-02T03:22:59.126Z,98945.59
2022-11-02T03:25:38.255Z,98929.56
2022-11-02T03:28:18.967Z,98944.66
2022-11-02T03:30:53.323Z,98942.13
2022-11-02T03:33:36.780Z,98949.13
2022-11-02T03:36:16.247Z,98949.13
2022-11-02T03:38:56.091Z,98956.22
2022-11-02T03:41:25.958Z,98940.19
2022-11-02T03:43:59.636Z,98951.91
2022-11-02T03:48:56.078Z,98954.56
2022-11-02T03:51:24.821Z,98954.56
2022-11-02T03:53:56.699Z,98944.03
2022-11-02T03:56:29.658Z,98943.94
2022-11-02T03:58:57.049Z,98949.25
2022-11-02T04:01:27.260Z,98954.56
2022-11-02T04:03:55.462Z,98949.34
2022-11-02T04:06:23.423Z,98957.31
2022-11-02T04:08:50.063Z,98954.56
2022-11-02T04:11:38.177Z,98964.19
2022-11-02T04:14:27.871Z,98956.59
2022-11-02T04:17:15.691Z,98959.97
2022-11-02T04:19:49.755Z,98964.44
2022-11-02T04:22:37.020Z,98957.44
2022-11-02T04:25:20.683Z,98964.56
2022-11-02T04:28:09.493Z,98968.19
2022-11-02T04:30:42.789Z,98964.06
2022-11-02T04:33:27.923Z,98976.13
2022-11-02T04:36:06.917Z,98979.63
2022-11-02T04:38:40.441Z,98973.22
2022-11-02T04:41:35.273Z,98971.31
2022-11-02T04:44:04.571Z,98975.41
2022-11-02T04:46:34.382Z,98982.34
2022-11-02T04:49:03.371Z,98962.63
2022-11-02T04:51:31.635Z,98976.78
2022-11-02T04:53:58.812Z,98986.44
2022-11-02T04:56:26.638Z,98980.16
2022-11-02T04:58:59.825Z,98974.00
2022-11-02T05:01:29.933Z,98985.56
2022-11-02T05:03:58.866Z,98983.91
2022-11-02T05:06:27.373Z,98976.03
2022-11-02T05:08:55.506Z,98960.09
2022-11-02T05:11:23.436Z,98984.13
2022-11-02T05:13:51.135Z,98981.47
2022-11-02T05:16:18.717Z,98986.78
2022-11-02T05:18:46.218Z,98983.28
2022-11-02T05:21:15.450Z,98989.56
2022-11-02T05:26:12.241Z,98989.56
2022-11-02T05:28:42.645Z,98986.03
2022-11-02T05:33:31.281Z,98995.94
2022-11-02T05:36:00.772Z,98999.56
2022-11-02T05:38:29.375Z,98997.03
2022-11-02T05:40:59.975Z,98999.78
2022-11-02T05:43:30.244Z,99009.56
2022-11-02T05:46:01.699Z,99006.91
2022-11-02T05:48:31.776Z,99009.78
2022-11-02T05:51:00.304Z,99009.69
2022-11-02T05:53:27.926Z,99007.13
2022-11-02T05:55:58.777Z,99009.78
2022-11-02T05:58:28.086Z,99012.53
2022-11-02T06:00:54.759Z,99010.75
2022-11-02T06:03:21.468Z,99007.22
2022-11-02T06:05:48.101Z,99010.75
2022-11-02T06:08:14.724Z,99014.38
2022-11-02T06:10:43.261Z,99010.00
2022-11-02T06:13:10.093Z,99013.50
2022-11-02T06:15:36.847Z,99016.16
2022-11-02T06:18:03.578Z,99023.16
2022-11-02T06:20:30.066Z,99019.78
2022-11-02T06:22:56.705Z,99028.47
2022-11-02T06:25:23.332Z,99040.91
2022-11-02T06:27:56.433Z,99026.78
2022-11-02T06:30:26.847Z,99026.78
2022-11-02T06:32:54.559Z,99025.09
2022-11-02T06:35:22.968Z,99025.94
2022-11-02T06:37:49.640Z,99026.06
2022-11-02T06:40:17.707Z,99029.53
2022-11-02T06:43:03.167Z,99024.25
2022-11-02T06:45:33.341Z,99022.03
2022-11-02T06:47:59.855Z,99025.94
2022-11-02T06:50:26.454Z,99032.19
2022-11-02T06:52:53.231Z,99029.66
2022-11-02T06:55:19.813Z,99030.41
2022-11-02T06:57:46.330Z,99033.91
2022-11-02T07:00:20.944Z,99026.06
2022-11-02T07:03:01.101Z,99032.94
2022-11-02T07:05:28.504Z,99021.09
2022-11-02T07:07:55.430Z,99033.78
2022-11-02T07:10:22.708Z,99021.59
2022-11-02T07:12:52.965Z,99028.47
2022-11-02T07:15:20.942Z,99026.69
2022-11-02T07:20:11.161Z,99018.72
2022-11-02T07:22:37.821Z,99024.03
2022-11-02T07:25:04.908Z,99027.50
2022-11-02T07:27:31.474Z,99019.56
2022-11-02T07:29:58.294Z,99017.84
2022-11-02T07:32:25.708Z,99018.81
2022-11-02T07:34:52.251Z,99019.66
2022-11-02T07:37:18.854Z,99021.47
2022-11-02T07:39:45.505Z,99003.25
2022-11-02T07:42:12.311Z,99019.66
2022-11-02T07:44:42.497Z,99024.84
2022-11-02T07:47:09.060Z,99018.72
2022-11-02T07:49:36.448Z,99021.38
2022-11-02T07:52:03.155Z,99025.81
2022-11-02T07:54:29.646Z,99031.97
2022-11-02T07:56:56.214Z,99035.47
2022-11-02T07:59:22.792Z,99029.22
2022-11-02T08:01:49.378Z,99030.03
2022-11-02T08:04:16.016Z,99027.19
2022-11-02T08:06:42.708Z,99022.69
2022-11-02T08:09:09.316Z,99025.47
2022-11-02T08:11:36.042Z,99026.31
2022-11-02T08:14:02.747Z,99028.00
2022-11-02T08:16:30.622Z,99025.47
2022-11-02T08:18:59.520Z,99026.22
2022-11-02T08:23:58.487Z,99024.28
2022-11-02T08:26:25.412Z,99022.16
2022-11-02T08:28:52.390Z,99037.00
2022-11-02T08:31:19.212Z,99027.47
2022-11-02T08:33:47.272Z,99026.88
2022-11-02T08:40:55.122Z,99025.44
2022-11-02T08:43:21.891Z,98996.09
2022-11-02T08:46:17.696Z,99018.94
2022-11-02T08:48:36.085Z,99016.88
2022-11-02T08:51:03.177Z,99019.41
2022-11-02T08:53:29.737Z,99024.59
2022-11-02T08:55:59.430Z,99020.91
2022-11-02T08:58:26.630Z,99023.44
2022-11-02T09:00:54.161Z,99027.66
2022-11-02T09:03:26.527Z,99026.69
2022-11-02T09:06:01.923Z,99024.75
2022-11-02T09:08:29.352Z,99007.63
2022-11-02T09:11:00.183Z,99015.59
2022-11-02T09:13:27.964Z,99006.69
2022-11-02T09:15:56.658Z,99015.38
2022-11-02T09:18:23.928Z,99013.34
2022-11-02T09:20:51.469Z,99011.28
2022-11-02T09:23:20.400Z,99011.28
2022-11-02T09:25:47.443Z,99001.28
2022-11-02T09:28:15.678Z,98994.28
2022-11-02T09:30:42.805Z,98998.63
2022-11-02T09:33:09.968Z,99007.31
2022-11-02T09:40:46.791Z,98994.88
2022-11-02T09:43:45.851Z,98998.28
2022-11-02T09:48:44.199Z,98989.44
2022-11-02T09:51:15.287Z,98990.31
2022-11-02T09:53:55.674Z,98989.34
2022-11-02T09:56:22.617Z,98985.72
2022-11-02T09:59:02.578Z,98989.22
2022-11-02T10:02:02.890Z,98983.91
2022-11-02T10:04:38.510Z,98991.03
2022-11-02T10:07:39.273Z,98985.72
2022-11-02T10:10:15.324Z,98986.69
2022-11-02T10:12:58.972Z,98990.19
2022-11-02T10:15:36.660Z,98985.72
2022-11-02T10:18:05.163Z,98979.81
2022-11-02T10:20:40.157Z,98980.03
2022-11-02T10:23:09.033Z,98985.25
2022-11-02T10:25:36.530Z,98958.56
2022-11-02T10:28:15.613Z,98983.91
2022-11-02T10:30:44.798Z,98977.50
2022-11-02T10:33:15.277Z,98978.34
2022-11-02T10:36:19.829Z,98983.41
2022-11-02T10:38:49.494Z,98980.63
2022-11-02T10:41:28.193Z,98973.25
2022-11-02T10:44:12.382Z,98967.84
2022-11-02T10:46:39.001Z,98973.84
2022-11-02T10:49:33.865Z,98960.97
2022-11-02T10:52:00.515Z,98969.16
2022-11-02T10:54:33.415Z,98965.53
2022-11-02T10:57:11.800Z,98959.25
2022-11-02T10:59:38.662Z,98954.56
2022-11-02T11:02:15.159Z,98966.00
2022-11-02T11:04:42.627Z,98965.03
2022-11-02T11:09:51.167Z,98970.13
2022-11-02T11:12:26.201Z,98966.38
2022-11-02T11:20:24.999Z,98969.72
2022-11-02T11:23:21.731Z,98972.28
2022-11-02T11:25:55.876Z,98957.44
2022-11-02T11:28:25.959Z,98973.13
2022-11-02T11:31:10.533Z,98967.66
2022-11-02T11:33:49.119Z,98967.81
2022-11-02T11:36:33.412Z,98961.53
2022-11-02T11:39:02.247Z,98960.56
2022-11-02T11:41:31.580Z,98964.94
2022-11-02T11:43:58.780Z,98942.44
2022-11-02T11:46:40.174Z,98958.53
2022-11-02T11:49:19.540Z,98959.38
2022-11-02T11:51:50.948Z,98953.91
2022-11-02T11:54:31.944Z,98948.50
2022-11-02T11:56:59.622Z,98944.84
2022-11-02T11:59:44.409Z,98951.84
2022-11-02T12:02:25.112Z,98952.72
2022-11-02T12:04:58.844Z,98951.75
2022-11-02T12:08:03.152Z,98949.94
2022-11-02T12:10:48.410Z,98948.09
2022-11-02T12:13:30.656Z,98955.13
2022-11-02T12:16:09.364Z,98940.97
2022-11-02T12:18:47.952Z,98950.53
2022-11-02T12:21:41.179Z,98942.53
2022-11-02T12:24:36.934Z,98943.38
2022-11-02T12:27:24.079Z,98934.56
2022-11-02T12:30:02.766Z,98933.47
2022-11-02T12:32:55.463Z,98930.81
2022-11-02T12:35:57.588Z,98925.50
2022-11-02T12:38:26.724Z,98926.22
2022-11-02T12:41:04.791Z,98925.25
2022-11-02T12:43:45.418Z,98929.72
2022-11-02T12:46:44.613Z,98930.81
2022-11-02T12:49:43.029Z,98930.94
2022-11-02T12:52:23.862Z,98913.56
2022-11-02T12:54:54.734Z,98933.97
2022-11-02T12:57:28.452Z,98920.91
2022-11-02T13:00:02.858Z,98928.31
2022-11-02T13:02:36.651Z,98920.69
2022-11-02T13:05:09.125Z,98924.78
2022-11-02T13:07:44.540Z,98935.44
2022-11-02T13:10:24.309Z,98924.94
2022-11-02T13:12:55.895Z,98919.34
2022-11-02T13:15:26.169Z,98912.59
2022-11-02T13:17:58.924Z,98928.66
2022-11-02T13:20:29.858Z,98926.97
2022-11-02T13:23:11.418Z,98940.38
2022-11-02T13:25:44.356Z,98927.78
2022-11-02T13:28:23.070Z,98930.59
2022-11-02T13:30:51.455Z,98933.25
2022-11-02T13:33:29.798Z,98921.53
2022-11-02T13:35:56.453Z,98934.19
2022-11-02T13:38:32.012Z,98927.19
2022-11-02T13:41:17.392Z,98935.28
2022-11-02T13:44:23.065Z,98934.47
2022-11-02T13:46:58.794Z,98928.28
2022-11-02T13:49:41.883Z,98929.16
2022-11-02T13:52:15.295Z,98927.47
2022-11-02T13:54:51.162Z,98937.97
2022-11-02T13:57:36.402Z,98939.66
2022-11-02T14:00:08.018Z,98937.81
2022-11-02T14:02:42.322Z,98934.34
2022-11-02T14:05:09.113Z,98940.75
2022-11-02T14:07:41.383Z,98934.34
2022-11-02T14:10:18.875Z,98938.69
2022-11-02T14:12:49.733Z,98937.00
2022-11-02T14:15:16.250Z,98947.63
2022-11-02T14:17:55.186Z,98943.03
2022-11-02T14:20:37.033Z,98938.56
2022-11-02T14:23:09.430Z,98952.69
2022-11-02T14:25:45.357Z,98949.19
2022-11-02T14:28:29.168Z,98948.22
2022-11-02T14:31:05.041Z,98949.19
2022-11-02T14:33:31.655Z,98951.13
2022-11-02T14:36:09.439Z,98950.41
2022-11-02T14:39:00.987Z,98950.41
2022-11-02T14:41:42.669Z,98950.50
2022-11-02T14:44:30.453Z,98948.72
2022-11-02T14:47:06.211Z,98951.38
2022-11-02T14:49:38.107Z,98949.47
2022-11-02T14:52:13.837Z,98958.25
2022-11-02T14:55:06.692Z,98953.69
2022-11-02T14:57:41.072Z,98950.03
2022-11-02T15:00:30.420Z,98956.22
2022-11-02T15:05:37.327Z,98952.59
2022-11-02T15:08:16.449Z,98956.97
2022-11-02T15:10:45.398Z,98951.66
2022-11-02T15:13:21.458Z,98956.09
2022-11-02T15:15:50.899Z,98956.09
2022-11-02T15:18:29.768Z,98960.47
2022-11-02T15:21:11.593Z,98965.78
2022-11-02T15:24:05.800Z,98961.41
2022-11-02T15:26:49.014Z,98959.69
2022-11-02T15:31:29.358Z,98958.00
2022-11-02T15:33:59.022Z,98966.84
2022-11-02T15:36:38.729Z,98967.66
2022-11-02T15:39:14.928Z,98972.16
2022-11-02T15:41:48.662Z,98974.72
2022-11-02T15:44:21.270Z,98975.66
2022-11-02T15:47:12.617Z,98980.03
2022-11-02T15:50:01.101Z,98978.31
2022-11-02T15:53:08.621Z,98985.34
2022-11-02T15:55:59.795Z,98987.16
2022-11-02T15:58:59.074Z,98995.13
2022-11-02T16:01:28.357Z,99002.03
2022-11-02T16:04:05.827Z,99004.69
2022-11-02T16:06:38.079Z,99004.06
2022-11-02T16:09:31.501Z,99004.19
2022-11-02T16:12:21.702Z,99011.44
2022-11-02T16:15:04.383Z,99005.50
2022-11-02T16:17:32.038Z,99004.78
2022-11-02T16:20:29.189Z,99005.03
2022-11-02T16:23:04.179Z,99005.41
2022-11-02T16:25:46.485Z,99011.94
2022-11-02T16:28:29.170Z,99012.28
2022-11-02T16:31:18.860Z,98995.63
2022-11-02T16:33:54.694Z,99016.78
2022-11-02T16:36:25.524Z,99022.91
2022-11-02T16:38:59.672Z,99019.44
2022-11-02T16:41:31.916Z,99023.88
2022-11-02T16:44:10.450Z,99024.00
2022-11-02T16:46:47.300Z,99034.78
2022-11-02T16:49:18.668Z,99031.25
2022-11-02T16:51:52.238Z,99004.81
2022-11-02T16:54:29.873Z,99029.56
2022-11-02T16:57:10.218Z,99037.53
2022-11-02T16:59:56.323Z,99042.00
2022-11-02T17:02:38.659Z,99049.16
2022-11-02T17:05:26.252Z,99046.50
2022-11-02T17:08:09.078Z,99050.81
2022-11-02T17:10:38.125Z,99049.84
2022-11-02T17:13:09.118Z,99050.72
2022-11-02T17:15:37.418Z,99055.16
2022-11-02T17:18:09.819Z,99056.88
2022-11-02T17:20:38.371Z,99055.03
2022-11-02T17:23:07.534Z,99056.88
2022-11-02T17:25:35.118Z,99060.34
2022-11-02T17:28:04.831Z,99060.34
2022-11-02T17:30:34.565Z,99069.06
2022-11-02T17:33:08.734Z,99065.56
2022-11-02T17:35:36.048Z,99066.06
2022-11-02T17:38:03.479Z,99066.63
2022-11-02T17:40:30.372Z,99069.88
2022-11-02T17:42:59.827Z,99072.88
2022-11-02T17:47:45.812Z,99071.56
2022-11-02T17:50:12.640Z,99071.66
2022-11-02T17:52:40.417Z,99080.69
2022-11-02T17:55:12.982Z,99071.28
2022-11-02T17:57:39.509Z,99073.59
2022-11-02T18:00:06.999Z,99072.13
2022-11-02T18:02:39.136Z,99086.13
2022-11-02T18:05:18.534Z,99096.03
2022-11-02T18:07:46.913Z,99094.31
2022-11-02T18:10:13.463Z,99094.53
2022-11-02T18:12:40.095Z,99087.53
2022-11-02T18:15:07.279Z,99092.13
2022-11-02T18:17:35.012Z,99089.56
2022-11-02T18:20:01.710Z,99083.63
2022-11-02T18:22:28.261Z,99091.72
2022-11-02T18:24:54.744Z,99094.50
2022-11-02T18:27:23.676Z,99095.59
2022-11-02T18:29:51.568Z,99098.38
2022-11-02T18:32:19.154Z,99103.06
2022-11-02T18:37:04.816Z,99103.28
2022-11-02T18:39:31.363Z,99113.06
2022-11-02T18:41:57.899Z,99106.16
2022-11-02T18:44:24.581Z,99106.50
2022-11-02T18:46:51.123Z,99098.75
2022-11-02T18:49:17.760Z,99105.63
2022-11-02T18:51:45.745Z,99109.16
2022-11-02T18:54:13.029Z,99121.69
2022-11-02T18:56:39.611Z,99127.94
2022-11-02T18:59:06.310Z,99125.53
2022-11-02T19:03:58.709Z,99129.28
2022-11-02T19:06:45.736Z,99103.00
2022-11-02T19:09:23.404Z,99123.56
2022-11-02T19:12:15.036Z,99120.28
2022-11-02T19:14:44.178Z,99121.34
2022-11-02T19:17:12.277Z,99118.81
2022-11-02T19:19:43.282Z,99125.94
2022-11-02T19:22:13.307Z,99127.72
2022-11-02T19:24:40.015Z,99125.94
2022-11-02T19:27:09.333Z,99137.50
2022-11-02T19:29:35.929Z,99147.25
2022-11-02T19:32:02.561Z,99089.75
2022-11-02T19:34:29.294Z,99149.19
2022-11-02T19:36:56.030Z,99159.91
2022-11-02T19:39:22.631Z,99160.13
2022-11-02T19:41:52.312Z,99157.38
2022-11-02T19:44:19.256Z,99162.78
2022-11-02T19:46:45.803Z,99156.00
2022-11-02T19:49:12.479Z,99163.22
2022-11-02T19:51:39.124Z,99155.44
2022-11-02T19:54:06.056Z,99154.41
2022-11-02T19:56:34.915Z,99168.19
2022-11-02T19:59:01.828Z,99167.56
2022-11-02T20:01:30.945Z,99165.88
2022-11-02T20:03:58.435Z,99155.81
2022-11-02T20:06:32.342Z,99163.66
2022-11-02T20:08:59.478Z,99161.94
2022-11-02T20:13:53.755Z,99172.91
2022-11-02T20:16:20.651Z,99170.34
2022-11-02T20:18:49.613Z,99175.03
2022-11-02T20:21:26.855Z,99171.63
2022-11-02T20:23:57.454Z,99171.75
2022-11-02T20:26:32.541Z,99170.50
2022-11-02T20:29:00.561Z,99181.28
2022-11-02T20:31:36.590Z,99174.41
2022-11-02T20:34:05.184Z,99175.47
2022-11-02T20:36:32.081Z,99176.41
2022-11-02T20:38:59.582Z,99180.00
2022-11-02T20:41:26.617Z,99165.59
2022-11-02T20:43:55.505Z,99188.31
2022-11-02T20:46:37.528Z,99191.03
2022-11-02T20:49:21.594Z,99183.09
2022-11-02T20:51:52.980Z,99184.03
2022-11-02T20:54:20.644Z,99181.38
2022-11-02T20:56:51.476Z,99167.22
2022-11-02T20:59:18.646Z,99188.63
2022-11-02T21:01:45.396Z,99192.97
2022-11-02T21:04:18.609Z,99200.94
2022-11-02T21:06:48.080Z,99196.56
2022-11-02T21:09:14.973Z,99190.31
2022-11-02T21:12:00.125Z,99192.97
2022-11-02T21:14:26.822Z,99185.03
2022-11-02T21:16:53.771Z,99174.41
2022-11-02T21:19:20.513Z,99181.38
2022-11-02T21:21:47.323Z,99179.59
2022-11-02T21:24:14.010Z,99188.41
2022-11-02T21:26:40.634Z,99177.78
2022-11-02T21:29:07.263Z,99178.66
2022-11-02T21:31:33.978Z,99179.50
2022-11-02T21:34:00.590Z,99192.63
2022-11-02T21:36:27.114Z,99184.69
2022-11-02T21:38:54.342Z,99186.38
2022-11-02T21:41:26.471Z,99186.38
2022-11-02T21:43:55.502Z,99191.56
2022-11-02T21:46:22.509Z,99202.19
2022-11-02T21:48:49.054Z,99199.53
2022-11-02T21:51:18.584Z,99202.19
2022-11-02T21:53:47.006Z,99188.91
2022-11-02T21:56:16.742Z,99189.91
2022-11-02T21:58:46.171Z,99194.34
2022-11-02T22:01:41.237Z,99204.09
2022-11-02T22:04:08.330Z,99207.72
2022-11-02T22:06:37.475Z,99203.34
2022-11-02T22:11:31.987Z,99206.00
2022-11-02T22:14:00.094Z,99209.59
2022-11-02T22:16:43.640Z,99218.41
2022-11-02T22:19:12.440Z,99206.13
2022-11-02T22:21:44.212Z,99209.72
2022-11-02T22:24:11.372Z,99207.91
2022-11-02T22:26:38.937Z,99194.13
2022-11-02T22:29:06.107Z,99200.94
2022-11-02T22:31:38.803Z,99199.13
2022-11-02T22:34:07.987Z,99195.63
2022-11-02T22:36:35.947Z,99197.41
2022-11-02T22:39:05.975Z,99200.94
2022-11-02T22:41:35.170Z,99200.06
2022-11-02T22:44:16.610Z,99202.81
2022-11-02T22:46:48.611Z,99204.63
2022-11-02T22:49:17.471Z,99201.13
2022-11-02T22:51:46.462Z,99199.41
2022-11-02T22:54:15.858Z,99210.91
2022-11-02T22:56:43.582Z,99211.84
2022-11-02T22:59:10.474Z,99223.28
2022-11-02T23:01:38.075Z,99207.78
2022-11-02T23:04:06.127Z,99214.59
2022-11-02T23:06:33.146Z,99227.09
2022-11-02T23:09:00.039Z,99226.16
2022-11-02T23:11:36.861Z,99225.28
2022-11-02T23:14:12.010Z,99223.63
2022-11-02T23:16:40.790Z,99227.22
2022-11-02T23:19:26.497Z,99226.34
2022-11-02T23:22:12.604Z,99221.16
2022-11-02T23:25:04.530Z,99235.25
2022-11-02T23:27:32.887Z,99234.41
2022-11-02T23:30:18.339Z,99224.19
2022-11-02T23:32:44.972Z,99233.66
2022-11-02T23:35:29.943Z,99228.34
2022-11-02T23:38:05.152Z,99234.56
2022-11-02T23:40:32.529Z,99230.25
2022-11-02T23:42:59.106Z,99237.22
2022-11-02T23:45:25.654Z,99233.84
2022-11-02T23:48:00.094Z,99233.84
2022-11-02T23:50:50.790Z,99231.19
2022-11-02T23:53:38.595Z,99241.78
2022-11-02T23:58:32.444Z,99223.34
